Time;durP1;ratioP1;P1;durP2;ratioP2;P2;SDS_P1;SDS_P2;PMS_P1;PMS_P2;Temp;Humidity;BMP_temperature;BMP_pressure;BME280_temperature;BME280_humidity;BME280_pressure;Samples;Min_cycle;Max_cycle;Signal;HPM_P1;HPM_P2
2023/12/02 00:01:51;;;;;;;10.50;3.97;;;1.60;1.00;;;;;;5050228;28;20385;-65
2023/12/02 00:04:16;;;;;;;11.23;4.70;;;1.60;1.00;;;;;;5051059;28;20398;-66
2023/12/02 00:06:42;;;;;;;17.37;5.40;;;1.40;1.00;;;;;;5051315;28;20385;-67
2023/12/02 00:09:07;;;;;;;10.50;4.63;;;1.50;1.00;;;;;;5050598;28;20396;-66
2023/12/02 00:11:33;;;;;;;12.50;4.90;;;1.40;1.00;;;;;;5049166;28;20535;-66
2023/12/02 00:13:58;;;;;;;15.00;5.20;;;1.50;1.00;;;;;;5050176;28;20440;-66
2023/12/02 00:16:24;;;;;;;12.63;5.25;;;1.50;1.00;;;;;;5049931;28;20432;-65
2023/12/02 00:18:50;;;;;;;13.97;7.40;;;1.60;1.00;;;;;;5050133;28;20396;-65
2023/12/02 00:21:15;;;;;;;16.95;7.05;;;1.60;1.00;;;;;;5052259;28;20851;-65
2023/12/02 00:23:41;;;;;;;14.10;6.43;;;1.70;1.00;;;;;;5052521;28;20911;-65
2023/12/02 00:26:07;;;;;;;16.63;6.47;;;1.60;1.00;;;;;;5049851;28;20419;-66
2023/12/02 00:28:33;;;;;;;13.00;6.00;;;1.50;1.00;;;;;;5049848;28;20393;-66
2023/12/02 00:30:59;;;;;;;16.13;6.30;;;1.50;1.00;;;;;;5049538;28;20463;-66
2023/12/02 00:33:24;;;;;;;11.63;5.77;;;1.50;1.00;;;;;;5049544;28;20395;-66
2023/12/02 00:35:50;;;;;;;13.00;6.70;;;1.50;1.00;;;;;;5049744;28;20420;-66
2023/12/02 00:38:15;;;;;;;12.25;5.60;;;1.50;1.00;;;;;;5050101;28;20421;-66
2023/12/02 00:40:41;;;;;;;13.33;6.00;;;1.50;1.00;;;;;;5049314;28;20901;-66
2023/12/02 00:43:06;;;;;;;12.65;6.93;;;1.60;1.00;;;;;;5049782;28;20391;-65
2023/12/02 00:45:32;;;;;;;16.43;5.70;;;1.70;1.00;;;;;;5049544;28;20396;-65
2023/12/02 00:47:57;;;;;;;12.63;4.95;;;1.70;1.00;;;;;;5049372;28;20438;-65
2023/12/02 00:50:23;;;;;;;11.50;6.10;;;1.70;1.00;;;;;;5049537;28;20423;-66
2023/12/02 00:52:48;;;;;;;12.55;5.53;;;1.80;1.00;;;;;;5049351;28;20422;-66
2023/12/02 00:55:14;;;;;;;14.10;5.70;;;1.70;1.00;;;;;;5049549;28;20476;-65
2023/12/02 00:57:39;;;;;;;11.75;5.05;;;1.50;1.00;;;;;;5049011;28;20854;-65
2023/12/02 01:00:05;;;;;;;18.00;5.40;;;1.50;1.00;;;;;;5048125;28;20420;-65
2023/12/02 01:02:31;;;;;;;11.23;4.65;;;1.50;1.00;;;;;;5049211;28;20396;-65
2023/12/02 01:04:56;;;;;;;14.90;6.67;;;1.50;1.00;;;;;;5035465;28;20885;-65
2023/12/02 01:07:22;;;;;;;16.13;6.33;;;1.70;1.00;;;;;;5029464;28;20387;-65
2023/12/02 01:09:47;;;;;;;15.50;6.50;;;1.80;1.00;;;;;;5029215;28;20394;-65
2023/12/02 01:12:13;;;;;;;15.90;5.47;;;1.70;1.00;;;;;;5029557;28;20399;-65
2023/12/02 01:14:38;;;;;;;11.35;5.47;;;1.70;1.00;;;;;;5029395;28;20382;-65
2023/12/02 01:17:04;;;;;;;13.83;6.13;;;1.60;1.00;;;;;;5029345;28;20419;-65
2023/12/02 01:19:29;;;;;;;11.90;5.20;;;1.70;1.00;;;;;;5029396;28;20406;-65
2023/12/02 01:21:55;;;;;;;11.20;5.63;;;1.60;1.00;;;;;;5029208;28;20379;-65
2023/12/02 01:24:21;;;;;;;13.63;5.82;;;1.50;1.00;;;;;;5028962;28;20406;-65
2023/12/02 01:26:46;;;;;;;15.93;5.35;;;1.50;1.00;;;;;;5029147;28;20451;-65
2023/12/02 01:29:12;;;;;;;11.27;6.43;;;1.40;1.00;;;;;;5029649;28;20394;-65
2023/12/02 01:31:37;;;;;;;15.07;5.90;;;1.50;1.00;;;;;;5029302;28;20405;-65
2023/12/02 01:34:03;;;;;;;8.67;4.50;;;1.40;1.00;;;;;;5029032;28;20403;-65
2023/12/02 01:36:28;;;;;;;8.50;4.82;;;1.50;1.00;;;;;;5028579;28;20443;-65
2023/12/02 01:38:54;;;;;;;10.77;4.63;;;1.40;1.00;;;;;;5029170;28;20403;-66
2023/12/02 01:41:19;;;;;;;10.23;5.43;;;1.30;1.00;;;;;;5028384;28;20387;-66
2023/12/02 01:43:45;;;;;;;12.40;4.90;;;1.10;1.00;;;;;;5029308;28;20406;-66
2023/12/02 01:46:14;;;;;;;12.55;5.07;;;1.10;14.20;;;;;;5028953;28;20395;-66
2023/12/02 01:48:40;;;;;;;13.38;5.32;;;1.40;1.00;;;;;;5028999;28;20397;-66
2023/12/02 01:51:07;;;;;;;9.65;4.47;;;1.50;1.00;;;;;;5027475;28;20497;-66
2023/12/02 01:53:32;;;;;;;9.80;4.18;;;1.50;1.00;;;;;;5029028;28;20461;-66
2023/12/02 01:55:58;;;;;;;13.63;5.87;;;1.60;1.00;;;;;;5028705;28;21196;-66
2023/12/02 01:58:23;;;;;;;9.52;4.60;;;1.50;1.00;;;;;;5029293;28;20761;-66
2023/12/02 02:00:49;;;;;;;10.50;4.07;;;1.50;1.00;;;;;;5029855;28;20597;-66
2023/12/02 02:03:14;;;;;;;13.77;3.95;;;1.40;1.00;;;;;;5030248;28;20477;-66
2023/12/02 02:05:42;;;;;;;10.43;5.23;;;1.10;1.00;;;;;;5029608;28;20402;-66
2023/12/02 02:08:08;;;;;;;14.13;6.13;;;1.20;1.00;;;;;;5029777;28;20418;-66
2023/12/02 02:10:33;;;;;;;9.40;3.90;;;1.20;1.00;;;;;;5029319;28;20870;-66
2023/12/02 02:12:59;;;;;;;15.43;6.15;;;1.20;1.00;;;;;;5029607;28;20394;-66
2023/12/02 02:15:24;;;;;;;16.80;6.88;;;1.20;1.00;;;;;;5029720;28;20402;-66
2023/12/02 02:17:50;;;;;;;13.97;6.60;;;1.20;1.00;;;;;;5029668;28;20488;-66
2023/12/02 02:20:15;;;;;;;11.80;5.55;;;1.10;1.10;;;;;;5030269;28;20387;-65
2023/12/02 02:22:41;;;;;;;14.60;5.23;;;1.00;21.30;;;;;;5030337;28;20395;-66
2023/12/02 02:25:07;;;;;;;11.55;6.10;;;1.00;99.00;;;;;;5048692;28;20440;-66
2023/12/02 02:27:32;;;;;;;12.97;5.57;;;1.10;65.40;;;;;;5048697;28;20396;-66
2023/12/02 02:29:58;;;;;;;11.38;5.13;;;0.90;69.40;;;;;;5048585;28;20394;-66
2023/12/02 02:32:23;;;;;;;8.07;5.15;;;0.80;99.90;;;;;;5048201;28;20910;-66
2023/12/02 02:34:49;;;;;;;9.60;4.00;;;0.70;99.90;;;;;;5051378;28;20401;-66
2023/12/02 02:37:14;;;;;;;12.90;4.90;;;0.60;99.90;;;;;;5052412;28;20429;-65
2023/12/02 02:39:40;;;;;;;13.13;3.83;;;0.60;99.90;;;;;;5051443;28;20384;-66
2023/12/02 02:42:06;;;;;;;10.93;5.35;;;0.70;99.90;;;;;;5051547;28;20415;-66
2023/12/02 02:44:34;;;;;;;14.47;5.50;;;0.80;99.90;;;;;;5051891;28;20400;-66
2023/12/02 02:47:00;;;;;;;15.10;5.60;;;0.90;99.90;;;;;;5051782;28;20389;-66
2023/12/02 02:49:25;;;;;;;10.77;4.43;;;0.80;99.90;;;;;;5051948;28;20393;-65
2023/12/02 02:51:51;;;;;;;9.97;4.70;;;0.80;99.90;;;;;;5052236;28;20385;-66
2023/12/02 02:54:16;;;;;;;13.10;4.72;;;0.90;99.90;;;;;;5051947;28;20393;-66
2023/12/02 02:56:43;;;;;;;14.77;4.90;;;1.00;99.90;;;;;;5050801;28;20484;-66
2023/12/02 02:59:09;;;;;;;13.73;3.72;;;0.90;99.90;;;;;;5052059;28;20443;-66
2023/12/02 03:01:36;;;;;;;13.50;5.20;;;0.90;99.90;;;;;;5051922;28;20398;-65
2023/12/02 03:04:01;;;;;;;13.77;5.03;;;0.90;99.90;;;;;;5045406;28;20406;-65
2023/12/02 03:06:27;;;;;;;8.33;4.30;;;0.90;99.90;;;;;;5032150;28;20383;-65
2023/12/02 03:08:52;;;;;;;11.83;4.27;;;0.90;99.90;;;;;;5031496;28;20387;-65
2023/12/02 03:11:19;;;;;;;11.60;4.50;;;0.90;90.70;;;;;;5031736;28;20451;-65
2023/12/02 03:13:44;;;;;;;7.95;4.88;;;0.90;35.30;;;;;;5032332;28;20391;-65
2023/12/02 03:16:10;;;;;;;17.07;4.47;;;0.90;87.90;;;;;;5031734;28;20399;-65
2023/12/02 03:18:35;;;;;;;14.60;5.20;;;0.70;44.10;;;;;;5031757;28;20423;-65
2023/12/02 03:21:01;;;;;;;11.37;5.70;;;0.70;99.90;;;;;;5031602;28;20399;-66
2023/12/02 03:23:26;;;;;;;11.52;5.07;;;0.80;99.90;;;;;;5031164;28;20391;-66
2023/12/02 03:25:52;;;;;;;10.50;3.43;;;0.70;99.90;;;;;;5031375;28;20391;-66
2023/12/02 03:28:19;;;;;;;10.43;3.85;;;0.70;99.90;;;;;;5031435;28;20422;-66
2023/12/02 03:30:45;;;;;;;12.32;5.72;;;0.70;99.90;;;;;;5032025;28;20395;-66
2023/12/02 03:33:10;;;;;;;12.10;5.25;;;0.80;99.90;;;;;;5031894;28;20403;-66
2023/12/02 03:35:36;;;;;;;10.80;4.30;;;0.90;85.20;;;;;;5030870;28;20968;-66
2023/12/02 03:38:01;;;;;;;14.52;5.03;;;0.90;52.60;;;;;;5030949;28;20994;-66
2023/12/02 03:40:27;;;;;;;14.20;4.27;;;0.90;46.30;;;;;;5031359;28;20422;-66
2023/12/02 03:42:53;;;;;;;10.23;3.60;;;0.90;24.70;;;;;;5031283;28;20433;-66
2023/12/02 03:45:18;;;;;;;15.73;6.33;;;0.80;60.30;;;;;;5030453;28;20789;-66
2023/12/02 03:47:44;;;;;;;9.90;5.70;;;0.80;99.90;;;;;;5032056;28;20486;-66
2023/12/02 03:50:10;;;;;;;10.47;5.30;;;0.90;99.90;;;;;;5031225;28;20396;-66
2023/12/02 03:52:36;;;;;;;14.43;5.75;;;0.80;98.00;;;;;;5031049;28;20391;-66
2023/12/02 03:55:01;;;;;;;10.20;4.57;;;0.80;76.40;;;;;;5032587;28;20885;-66
2023/12/02 03:57:27;;;;;;;9.93;4.83;;;0.90;92.30;;;;;;5033441;28;20423;-66
2023/12/02 03:59:53;;;;;;;7.17;2.93;;;0.90;55.00;;;;;;5035974;28;20398;-66
2023/12/02 04:02:18;;;;;;;11.80;4.57;;;1.00;27.00;;;;;;5032448;28;20399;-65
2023/12/02 04:04:44;;;;;;;9.47;4.30;;;1.00;25.30;;;;;;5045114;28;20741;-65
2023/12/02 04:07:09;;;;;;;14.90;5.50;;;1.10;22.10;;;;;;5052058;28;20396;-65
2023/12/02 04:09:35;;;;;;;8.10;3.50;;;1.00;21.80;;;;;;5051348;28;20412;-65
2023/12/02 04:12:00;;;;;;;7.85;4.22;;;0.80;90.80;;;;;;5050852;28;20477;-65
2023/12/02 04:14:26;;;;;;;12.90;5.87;;;0.90;53.80;;;;;;5050610;28;20396;-65
2023/12/02 04:16:51;;;;;;;18.60;5.73;;;0.90;99.90;;;;;;5051195;28;20401;-65
2023/12/02 04:19:17;;;;;;;13.90;5.67;;;0.90;66.20;;;;;;5050770;28;20397;-65
2023/12/02 04:21:44;;;;;;;11.25;4.88;;;0.90;34.20;;;;;;5051378;28;20382;-65
2023/12/02 04:24:10;;;;;;;14.17;5.83;;;0.90;20.20;;;;;;5051368;28;20401;-65
2023/12/02 04:26:37;;;;;;;14.97;6.30;;;1.00;35.50;;;;;;5049236;28;20446;-65
2023/12/02 04:29:02;;;;;;;12.50;4.18;;;1.00;21.90;;;;;;5050847;28;20472;-65
2023/12/02 04:31:29;;;;;;;9.90;5.43;;;0.90;1.00;;;;;;5050788;28;20479;-65
2023/12/02 04:33:55;;;;;;;10.45;5.03;;;0.90;27.30;;;;;;5050375;28;20384;-66
2023/12/02 04:36:20;;;;;;;10.57;5.30;;;0.90;54.10;;;;;;5049961;28;20413;-66
2023/12/02 04:38:46;;;;;;;10.80;4.90;;;0.90;39.70;;;;;;5051078;28;20421;-66
2023/12/02 04:41:11;;;;;;;15.13;5.40;;;0.90;26.10;;;;;;5049858;28;20460;-66
2023/12/02 04:43:37;;;;;;;15.67;5.80;;;0.80;42.70;;;;;;5050289;28;20390;-66
2023/12/02 04:46:02;;;;;;;12.65;6.03;;;0.90;65.10;;;;;;5050238;28;20390;-66
2023/12/02 04:48:28;;;;;;;11.23;3.83;;;1.00;35.60;;;;;;5050035;28;20382;-65
2023/12/02 04:50:53;;;;;;;15.50;5.60;;;0.70;1.00;;;;;;5049927;28;20949;-66
2023/12/02 04:53:20;;;;;;;11.20;5.47;;;0.70;41.90;;;;;;5048969;28;20400;-66
2023/12/02 04:55:46;;;;;;;13.13;6.28;;;0.80;24.60;;;;;;5049935;28;20396;-66
2023/12/02 04:58:11;;;;;;;7.95;3.50;;;0.90;30.70;;;;;;5049959;28;20457;-66
2023/12/02 05:00:37;;;;;;;9.30;3.83;;;0.70;1.00;;;;;;5049936;28;20433;-66
2023/12/02 05:03:03;;;;;;;8.38;4.28;;;0.60;73.70;;;;;;5049904;28;20871;-66
2023/12/02 05:05:28;;;;;;;10.10;4.10;;;0.70;99.90;;;;;;5049753;28;20420;-66
2023/12/02 05:07:54;;;;;;;13.18;4.40;;;0.80;99.90;;;;;;5049381;28;20381;-66
2023/12/02 05:10:19;;;;;;;11.73;4.87;;;1.00;93.00;;;;;;5049400;28;20760;-66
2023/12/02 05:12:45;;;;;;;14.32;6.60;;;0.90;46.10;;;;;;5050201;28;20450;-66
2023/12/02 05:15:11;;;;;;;10.73;4.37;;;0.90;27.60;;;;;;5049581;28;20779;-66
2023/12/02 05:17:36;;;;;;;14.97;6.07;;;0.90;24.60;;;;;;5049506;28;20942;-66
2023/12/02 05:20:02;;;;;;;9.98;4.63;;;0.80;35.20;;;;;;5049948;28;20394;-65
2023/12/02 05:22:28;;;;;;;9.35;4.47;;;0.70;68.90;;;;;;5049331;28;20389;-65
2023/12/02 05:24:53;;;;;;;10.60;4.80;;;0.80;66.90;;;;;;5049348;28;20401;-65
2023/12/02 05:27:19;;;;;;;7.97;3.85;;;0.80;36.20;;;;;;5049213;28;20529;-66
2023/12/02 05:29:44;;;;;;;12.20;5.30;;;0.80;30.10;;;;;;5049663;28;20740;-66
2023/12/02 05:32:10;;;;;;;12.40;4.55;;;0.70;21.80;;;;;;5049360;28;20781;-66
2023/12/02 05:34:36;;;;;;;9.30;4.82;;;0.60;80.80;;;;;;5049404;28;20905;-66
2023/12/02 05:37:02;;;;;;;10.77;4.47;;;0.60;99.90;;;;;;5049007;28;20449;-66
2023/12/02 05:39:27;;;;;;;9.93;4.68;;;0.60;99.90;;;;;;5049223;28;20472;-66
2023/12/02 05:41:53;;;;;;;13.18;4.93;;;0.50;93.40;;;;;;5049159;28;21060;-66
2023/12/02 05:44:19;;;;;;;8.60;3.30;;;0.60;90.50;;;;;;5049207;28;20444;-66
2023/12/02 05:46:44;;;;;;;9.47;4.60;;;0.50;89.90;;;;;;5050047;28;20898;-66
2023/12/02 05:49:10;;;;;;;11.48;5.22;;;0.50;99.90;;;;;;5049546;28;20401;-66
2023/12/02 05:51:39;;;;;;;9.17;4.90;;;0.50;99.90;;;;;;5049130;28;20468;-66
2023/12/02 05:54:09;;;;;;;14.63;5.15;;;0.50;61.90;;;;;;5047937;28;20385;-66
2023/12/02 05:56:34;;;;;;;10.85;5.15;;;0.60;53.40;;;;;;5048782;28;20883;-66
2023/12/02 05:59:00;;;;;;;13.17;5.60;;;0.70;25.20;;;;;;5048979;28;20401;-66
2023/12/02 06:01:25;;;;;;;11.97;5.50;;;0.80;12.90;;;;;;5048940;28;20388;-66
2023/12/02 06:03:51;;;;;;;13.95;4.93;;;0.60;1.00;;;;;;5049205;28;20400;-65
2023/12/02 06:06:17;;;;;;;10.50;4.03;;;0.60;1.00;;;;;;5049045;28;20850;-66
2023/12/02 06:08:43;;;;;;;10.68;4.90;;;0.40;1.00;;;;;;5049655;28;20385;-66
2023/12/02 06:11:08;;;;;;;13.20;3.45;;;0.40;17.80;;;;;;5051410;28;20451;-66
2023/12/02 06:13:34;;;;;;;8.32;3.47;;;0.40;7.40;;;;;;5054146;28;20555;-66
2023/12/02 06:16:00;;;;;;;10.97;4.00;;;0.30;26.60;;;;;;5052998;28;20385;-66
2023/12/02 06:18:26;;;;;;;11.27;4.80;;;0.20;83.50;;;;;;5052714;28;20428;-66
2023/12/02 06:20:51;;;;;;;10.10;3.80;;;0.30;92.60;;;;;;5052301;28;20390;-66
2023/12/02 06:23:17;;;;;;;7.50;3.53;;;0.30;77.20;;;;;;5052745;28;20887;-66
2023/12/02 06:25:43;;;;;;;9.37;3.57;;;0.40;1.00;;;;;;5052953;28;20404;-66
2023/12/02 06:28:09;;;;;;;8.77;3.38;;;0.40;1.00;;;;;;5052479;28;20404;-66
2023/12/02 06:30:34;;;;;;;8.90;3.40;;;0.40;1.00;;;;;;5052877;28;20473;-66
2023/12/02 06:33:00;;;;;;;9.05;3.90;;;0.20;1.00;;;;;;5053876;28;20487;-66
2023/12/02 06:35:25;;;;;;;11.63;4.37;;;0.20;1.00;;;;;;5051961;28;20408;-66
2023/12/02 06:37:51;;;;;;;10.07;4.82;;;0.10;1.00;;;;;;5052213;28;20474;-66
2023/12/02 06:40:17;;;;;;;13.67;5.30;;;0.00;1.00;;;;;;5052691;28;20386;-66
2023/12/02 06:42:43;;;;;;;7.07;3.20;;;0.00;1.00;;;;;;5052583;28;20377;-65
2023/12/02 06:45:09;;;;;;;9.30;2.23;;;0.00;3.00;;;;;;5052372;28;20381;-65
2023/12/02 06:47:34;;;;;;;11.80;4.03;;;0.00;1.00;;;;;;5052246;28;20448;-65
2023/12/02 06:50:00;;;;;;;13.07;5.43;;;0.00;1.00;;;;;;5039756;28;20411;-66
2023/12/02 06:52:25;;;;;;;12.60;5.00;;;0.20;1.00;;;;;;5032349;28;20402;-66
2023/12/02 06:54:51;;;;;;;9.57;4.40;;;0.10;1.00;;;;;;5042222;28;20431;-66
2023/12/02 06:57:16;;;;;;;11.88;4.05;;;0.00;6.00;;;;;;5052105;28;20477;-66
2023/12/02 06:59:45;;;;;;;8.50;3.60;;;0.10;10.80;;;;;;5051126;28;20389;-66
2023/12/02 07:02:11;;;;;;;11.93;5.30;;;0.20;1.00;;;;;;5051647;28;20413;-66
2023/12/02 07:04:37;;;;;;;8.70;4.18;;;0.20;1.00;;;;;;5045655;28;20450;-65
2023/12/02 07:07:03;;;;;;;8.57;3.97;;;0.20;1.00;;;;;;5036810;28;20573;-65
2023/12/02 07:09:28;;;;;;;10.60;4.80;;;0.20;1.00;;;;;;5031996;28;20411;-64
2023/12/02 07:11:54;;;;;;;13.73;6.70;;;0.20;21.60;;;;;;5051750;28;20390;-65
2023/12/02 07:14:19;;;;;;;10.43;4.43;;;0.40;4.30;;;;;;5051645;28;20393;-65
2023/12/02 07:16:45;;;;;;;18.17;6.53;;;0.40;1.00;;;;;;5052141;28;20385;-65
2023/12/02 07:19:10;;;;;;;13.13;5.57;;;0.50;1.00;;;;;;5049760;28;20907;-66
2023/12/02 07:21:36;;;;;;;7.10;3.60;;;0.50;1.00;;;;;;5051784;28;20887;-66
2023/12/02 07:24:01;;;;;;;10.93;3.72;;;0.40;1.00;;;;;;5048942;28;20405;-65
2023/12/02 07:26:28;;;;;;;8.07;2.70;;;0.10;1.00;;;;;;5050804;28;20805;-66
2023/12/02 07:28:53;;;;;;;9.50;3.80;;;0.00;1.00;;;;;;5051336;28;20476;-66
2023/12/02 07:31:19;;;;;;;14.70;5.77;;;-0.10;1.00;;;;;;5050610;28;20809;-66
2023/12/02 07:33:44;;;;;;;9.73;2.83;;;0.00;1.00;;;;;;5045692;28;20405;-66
2023/12/02 07:36:10;;;;;;;11.30;4.57;;;-0.10;1.00;;;;;;5036438;28;20465;-66
2023/12/02 07:38:36;;;;;;;10.43;3.78;;;-0.20;1.00;;;;;;5044603;28;20483;-66
2023/12/02 07:41:02;;;;;;;9.87;3.83;;;-0.10;1.00;;;;;;5042186;28;20895;-66
2023/12/02 07:43:27;;;;;;;13.60;5.35;;;0.00;1.00;;;;;;5039644;28;20401;-67
2023/12/02 07:45:53;;;;;;;10.75;4.50;;;0.30;1.00;;;;;;5042348;28;20411;-67
2023/12/02 07:48:18;;;;;;;13.47;5.33;;;0.30;1.00;;;;;;5032418;28;20414;-67
2023/12/02 07:50:45;;;;;;;15.77;4.15;;;0.30;1.00;;;;;;5043488;28;20772;-67
2023/12/02 07:53:10;;;;;;;12.57;4.35;;;0.40;1.00;;;;;;5036708;28;20407;-66
2023/12/02 07:55:36;;;;;;;11.00;4.28;;;0.50;1.00;;;;;;5042614;28;20401;-66
2023/12/02 07:58:01;;;;;;;11.13;5.57;;;0.40;1.00;;;;;;5042303;28;20916;-66
2023/12/02 08:00:27;;;;;;;12.65;5.50;;;0.40;1.00;;;;;;5036322;28;20532;-66
2023/12/02 08:02:53;;;;;;;13.70;5.43;;;0.50;1.00;;;;;;5037224;28;20406;-67
2023/12/02 08:05:19;;;;;;;15.95;7.63;;;0.60;1.00;;;;;;5034623;28;20884;-67
2023/12/02 08:07:46;;;;;;;9.00;4.70;;;0.70;1.00;;;;;;5044999;28;20421;-67
2023/12/02 08:10:11;;;;;;;9.13;3.88;;;0.70;1.00;;;;;;5037827;28;20402;-67
2023/12/02 08:12:37;;;;;;;14.25;5.15;;;0.70;1.00;;;;;;5046777;28;20848;-67
2023/12/02 08:15:03;;;;;;;16.45;4.00;;;0.60;1.00;;;;;;5042179;28;20507;-67
2023/12/02 08:17:29;;;;;;;14.88;5.10;;;0.50;1.00;;;;;;5045251;28;20425;-67
2023/12/02 08:19:55;;;;;;;17.42;5.60;;;0.50;1.00;;;;;;5044342;28;20403;-67
2023/12/02 08:22:24;;;;;;;10.93;3.90;;;0.40;1.00;;;;;;5037483;28;20445;-67
2023/12/02 08:24:52;;;;;;;10.30;5.80;;;0.30;1.00;;;;;;5038957;28;20758;-66
2023/12/02 08:27:18;;;;;;;12.43;6.32;;;0.40;1.00;;;;;;5043798;28;20459;-67
2023/12/02 08:29:44;;;;;;;8.38;4.60;;;0.50;1.00;;;;;;5040368;28;20406;-67
2023/12/02 08:32:10;;;;;;;9.00;4.83;;;0.40;1.00;;;;;;5045068;28;20915;-67
2023/12/02 08:34:35;;;;;;;12.83;5.97;;;0.30;1.00;;;;;;5037521;28;20407;-67
2023/12/02 08:37:01;;;;;;;7.07;3.90;;;0.30;1.00;;;;;;5045617;28;20819;-67
2023/12/02 08:39:26;;;;;;;11.30;5.60;;;0.50;1.00;;;;;;5045090;28;20405;-68
2023/12/02 08:41:52;;;;;;;11.43;4.83;;;0.60;1.00;;;;;;5041522;28;20409;-67
2023/12/02 08:44:18;;;;;;;12.13;4.47;;;0.80;1.00;;;;;;5045988;28;20521;-68
2023/12/02 08:46:43;;;;;;;9.35;4.85;;;0.90;1.00;;;;;;5047610;28;20429;-67
2023/12/02 08:49:09;;;;;;;14.00;6.30;;;0.80;1.00;;;;;;5042102;28;20405;-67
2023/12/02 08:51:34;;;;;;;10.10;3.90;;;0.80;1.00;;;;;;5039412;28;20415;-67
2023/12/02 08:54:01;;;;;;;12.87;4.20;;;1.00;1.00;;;;;;5042132;28;20407;-67
2023/12/02 08:56:27;;;;;;;10.15;3.50;;;1.00;1.00;;;;;;5042938;28;20451;-66
2023/12/02 08:58:54;;;;;;;10.82;4.30;;;0.90;1.00;;;;;;5050694;28;20456;-66
2023/12/02 09:01:20;;;;;;;11.38;4.93;;;0.80;1.00;;;;;;5041328;28;20860;-66
2023/12/02 09:03:45;;;;;;;7.57;3.28;;;0.70;1.00;;;;;;5048381;28;20409;-66
2023/12/02 09:06:11;;;;;;;10.87;4.80;;;0.60;1.00;;;;;;5048729;28;20413;-66
2023/12/02 09:08:37;;;;;;;12.18;3.38;;;0.70;1.00;;;;;;5043283;28;20397;-66
2023/12/02 09:11:02;;;;;;;13.48;3.55;;;0.70;1.00;;;;;;5048200;28;20487;-66
2023/12/02 09:13:40;;;;;;;9.90;3.10;;;0.70;1.00;;;;;;5039939;28;20890;-66
2023/12/02 09:16:29;;;;;;;9.50;4.30;;;0.60;1.00;;;;;;5041363;28;20820;-67
2023/12/02 09:18:56;;;;;;;14.07;3.72;;;0.70;1.00;;;;;;5040835;28;20431;-66
2023/12/02 09:21:21;;;;;;;14.13;4.40;;;0.70;1.00;;;;;;5044564;28;20404;-66
2023/12/02 09:23:51;;;;;;;10.40;4.00;;;0.70;1.00;;;;;;5039886;28;20429;-66
2023/12/02 09:26:38;;;;;;;12.43;4.57;;;0.60;1.00;;;;;;5045880;28;20409;-66
2023/12/02 09:29:03;;;;;;;13.55;2.90;;;0.60;1.00;;;;;;5038483;28;20445;-64
2023/12/02 09:31:29;;;;;;;10.15;4.10;;;0.80;1.00;;;;;;5036335;28;20495;-65
2023/12/02 09:34:02;;;;;;;11.63;4.10;;;1.20;1.00;;;;;;5046417;28;20425;-63
2023/12/02 09:36:32;;;;;;;15.25;6.38;;;1.20;1.00;;;;;;5039013;28;20431;-64
2023/12/02 09:39:07;;;;;;;18.87;5.30;;;1.40;1.00;;;;;;5042350;28;20807;-66
2023/12/02 09:41:38;;;;;;;16.88;6.88;;;1.50;1.00;;;;;;5042159;28;20407;-66
2023/12/02 09:44:07;;;;;;;11.15;3.95;;;1.50;1.00;;;;;;5046211;28;20484;-66
2023/12/02 09:46:37;;;;;;;10.32;5.03;;;1.20;1.00;;;;;;5048390;28;20409;-66
2023/12/02 09:49:39;;;;;;;11.15;5.28;;;1.10;1.00;;;;;;5050864;28;20405;-67
2023/12/02 09:52:13;;;;;;;13.63;4.28;;;1.00;1.00;;;;;;5043109;28;20488;-66
2023/12/02 09:55:07;;;;;;;8.45;3.90;;;0.80;1.00;;;;;;5048236;28;20411;-66
2023/12/02 09:57:50;;;;;;;9.65;3.83;;;0.90;1.00;;;;;;5046995;28;20416;-66
2023/12/02 10:00:42;;;;;;;12.68;6.13;;;0.80;1.00;;;;;;5047461;28;20428;-66
2023/12/02 10:03:16;;;;;;;10.55;4.63;;;0.70;1.00;;;;;;5033354;28;20450;-66
2023/12/02 10:06:03;;;;;;;14.45;5.55;;;0.80;1.00;;;;;;5049231;28;20474;-66
2023/12/02 10:08:51;;;;;;;17.92;6.13;;;0.90;1.00;;;;;;5047327;28;20405;-66
2023/12/02 10:11:50;;;;;;;16.75;5.70;;;1.00;1.00;;;;;;5051286;28;20424;-66
2023/12/02 10:14:17;;;;;;;13.27;6.20;;;1.00;1.00;;;;;;5035495;28;20419;-66
2023/12/02 10:16:46;;;;;;;7.78;4.00;;;1.00;1.00;;;;;;5044734;28;20409;-66
2023/12/02 10:19:17;;;;;;;12.37;5.57;;;1.10;1.00;;;;;;5040687;28;20462;-66
2023/12/02 10:21:49;;;;;;;17.83;5.18;;;1.10;1.00;;;;;;5042809;28;20445;-65
2023/12/02 10:24:24;;;;;;;12.45;4.72;;;1.00;1.00;;;;;;5034833;28;20817;-66
2023/12/02 10:27:06;;;;;;;9.98;3.95;;;0.90;1.00;;;;;;5036270;28;20454;-66
2023/12/02 10:29:53;;;;;;;10.15;4.20;;;0.90;1.00;;;;;;5050262;28;20413;-66
2023/12/02 10:32:38;;;;;;;8.60;3.47;;;1.00;1.00;;;;;;5044947;28;20447;-66
2023/12/02 10:35:12;;;;;;;12.00;4.22;;;1.10;1.00;;;;;;5049251;28;20409;-66
2023/12/02 10:37:41;;;;;;;10.50;4.23;;;1.30;1.00;;;;;;5051060;28;20443;-67
2023/12/02 10:40:09;;;;;;;10.07;4.65;;;1.20;1.00;;;;;;5048843;28;21236;-66
2023/12/02 10:42:58;;;;;;;11.32;4.03;;;1.00;1.00;;;;;;5042409;28;20433;-66
2023/12/02 10:45:25;;;;;;;13.15;4.38;;;0.70;1.00;;;;;;5053425;28;20423;-66
2023/12/02 10:47:52;;;;;;;10.70;4.53;;;0.60;1.00;;;;;;5052744;28;20405;-66
2023/12/02 10:50:18;;;;;;;9.07;4.95;;;0.70;1.00;;;;;;5040994;28;20798;-67
2023/12/02 10:52:57;;;;;;;11.70;4.30;;;0.80;1.00;;;;;;5052213;28;20887;-66
2023/12/02 10:55:25;;;;;;;8.90;4.70;;;0.80;1.00;;;;;;5049766;28;20405;-67
2023/12/02 10:57:53;;;;;;;8.32;3.10;;;0.80;1.00;;;;;;5051419;28;20548;-67
2023/12/02 11:00:20;;;;;;;12.02;3.90;;;1.00;1.00;;;;;;5052427;28;20381;-66
2023/12/02 11:02:52;;;;;;;9.90;4.47;;;1.10;1.00;;;;;;5053506;28;20895;-66
2023/12/02 11:05:28;;;;;;;11.60;4.13;;;1.00;1.00;;;;;;5039188;28;20405;-66
2023/12/02 11:07:57;;;;;;;11.07;4.70;;;1.10;1.00;;;;;;5052680;28;20389;-66
2023/12/02 11:10:43;;;;;;;6.60;3.40;;;1.10;1.00;;;;;;5054389;28;20385;-66
2023/12/02 11:13:12;;;;;;;11.07;4.67;;;1.00;1.00;;;;;;5053550;28;20444;-66
2023/12/02 11:16:00;;;;;;;11.18;4.53;;;1.10;1.00;;;;;;5053532;28;20401;-66
2023/12/02 11:18:55;;;;;;;9.07;3.17;;;1.00;1.00;;;;;;5046239;28;20453;-66
2023/12/02 11:21:33;;;;;;;9.15;3.60;;;1.00;1.00;;;;;;5047760;28;20758;-66
2023/12/02 11:24:24;;;;;;;10.80;4.28;;;1.10;1.00;;;;;;5048126;28;20496;-66
2023/12/02 11:26:57;;;;;;;10.23;3.67;;;1.20;1.00;;;;;;5048830;28;20471;-66
2023/12/02 11:29:50;;;;;;;8.70;2.95;;;1.10;1.00;;;;;;5051542;28;20882;-66
2023/12/02 11:32:34;;;;;;;9.73;4.20;;;1.10;1.00;;;;;;5046927;28;20505;-67
2023/12/02 11:35:09;;;;;;;9.77;4.20;;;1.00;1.00;;;;;;5040438;28;20410;-65
2023/12/02 11:37:49;;;;;;;9.10;4.70;;;0.70;1.00;;;;;;5044821;28;20425;-66
2023/12/02 11:40:24;;;;;;;9.43;3.55;;;0.70;1.00;;;;;;5047003;28;20397;-66
2023/12/02 11:43:16;;;;;;;12.23;4.35;;;0.70;1.00;;;;;;5054059;28;20405;-66
2023/12/02 11:45:53;;;;;;;12.43;4.90;;;0.80;1.00;;;;;;5053023;28;20880;-66
2023/12/02 11:48:28;;;;;;;15.13;5.28;;;0.80;1.00;;;;;;5045954;28;20815;-65
2023/12/02 11:51:14;;;;;;;14.10;5.03;;;0.90;1.00;;;;;;5050970;28;20401;-66
2023/12/02 11:54:18;;;;;;;16.98;6.43;;;0.90;1.00;;;;;;5056307;28;20945;-66
2023/12/02 11:56:57;;;;;;;16.90;7.25;;;0.80;1.00;;;;;;5046641;28;20952;-66
2023/12/02 11:59:31;;;;;;;20.33;8.17;;;0.70;1.00;;;;;;5054499;28;20418;-66
2023/12/02 12:02:00;;;;;;;8.00;4.05;;;0.90;1.00;;;;;;5049694;28;20445;-66
2023/12/02 12:04:40;;;;;;;9.20;3.60;;;0.90;1.00;;;;;;5052391;28;20407;-66
2023/12/02 12:07:09;;;;;;;10.27;3.90;;;1.10;1.00;;;;;;5055442;28;20404;-66
2023/12/02 12:09:40;;;;;;;8.50;2.90;;;1.10;1.00;;;;;;5050876;28;20417;-66
2023/12/02 12:12:09;;;;;;;8.52;3.40;;;1.00;1.00;;;;;;5056619;28;20410;-66
2023/12/02 12:14:37;;;;;;;9.43;3.60;;;0.90;1.00;;;;;;5044472;28;20952;-66
2023/12/02 12:17:03;;;;;;;12.30;4.68;;;1.00;1.00;;;;;;5045774;28;20430;-66
2023/12/02 12:19:29;;;;;;;8.80;3.30;;;1.00;1.00;;;;;;5045671;28;20411;-66
2023/12/02 12:21:56;;;;;;;7.90;3.10;;;1.00;1.00;;;;;;5047021;28;20413;-66
2023/12/02 12:24:21;;;;;;;7.60;3.08;;;0.80;1.00;;;;;;5039709;28;20397;-66
2023/12/02 12:26:47;;;;;;;8.30;3.87;;;0.90;1.00;;;;;;5034256;28;20895;-66
2023/12/02 12:29:15;;;;;;;7.15;3.38;;;0.90;1.00;;;;;;5035463;28;20480;-66
2023/12/02 12:31:41;;;;;;;8.00;3.53;;;0.90;1.00;;;;;;5037774;28;20436;-66
2023/12/02 12:34:11;;;;;;;9.60;3.47;;;0.80;1.00;;;;;;5037392;28;20413;-66
2023/12/02 12:36:39;;;;;;;7.93;3.63;;;1.00;1.00;;;;;;5030205;28;20429;-66
2023/12/02 12:39:06;;;;;;;8.82;3.90;;;1.10;1.00;;;;;;5038360;28;20479;-66
2023/12/02 12:41:36;;;;;;;12.27;3.30;;;1.10;1.00;;;;;;5039754;28;20410;-66
2023/12/02 12:44:03;;;;;;;7.60;3.00;;;1.10;1.00;;;;;;5035554;28;20418;-65
2023/12/02 12:46:30;;;;;;;9.57;3.40;;;0.90;1.00;;;;;;5045308;28;20405;-65
2023/12/02 12:48:56;;;;;;;8.68;3.85;;;0.70;1.00;;;;;;5036854;28;20413;-65
2023/12/02 12:51:22;;;;;;;7.45;3.38;;;0.50;1.00;;;;;;5053608;28;20401;-65
2023/12/02 12:54:10;;;;;;;9.40;3.50;;;0.60;1.00;;;;;;5044649;28;20401;-65
2023/12/02 12:56:47;;;;;;;8.82;3.75;;;0.70;1.00;;;;;;5049794;28;20401;-66
2023/12/02 12:59:16;;;;;;;7.57;2.72;;;0.50;1.00;;;;;;5038575;28;20456;-65
2023/12/02 13:01:58;;;;;;;8.15;3.05;;;0.40;1.00;;;;;;5046703;28;20397;-65
2023/12/02 13:04:31;;;;;;;9.73;3.85;;;0.40;1.00;;;;;;5048015;28;20415;-65